createdAt,value
2019-03-01T00:00:58.847Z,98869.86
2019-03-01T00:03:29.619Z,98864.02
2019-03-01T00:06:21.749Z,98864.00
2019-03-01T00:09:51.439Z,98856.23
2019-03-01T00:12:48.266Z,98858.05
2019-03-01T00:16:01.484Z,98860.48
2019-03-01T00:19:13.040Z,98853.66
2019-03-01T00:22:06.243Z,98856.95
2019-03-01T00:25:23.287Z,98857.07
2019-03-01T00:28:13.045Z,98857.07
2019-03-01T00:31:16.195Z,98848.80
2019-03-01T00:34:23.493Z,98838.58
2019-03-01T00:37:12.814Z,98841.98
2019-03-01T00:40:14.338Z,98833.22
2019-03-01T00:43:21.038Z,98832.38
2019-03-01T00:45:51.239Z,98834.21
2019-03-01T00:48:21.885Z,98812.78
2019-03-01T00:50:52.478Z,98818.14
2019-03-01T00:53:22.735Z,98826.29
2019-03-01T00:55:53.423Z,98821.28
2019-03-01T00:58:24.270Z,98824.70
2019-03-01T01:00:54.476Z,98819.59
2019-03-01T01:03:24.743Z,98825.21
2019-03-01T01:05:55.414Z,98829.31
2019-03-01T01:08:25.637Z,98817.52
2019-03-01T01:10:56.186Z,98817.37
2019-03-01T01:13:26.836Z,98812.16
2019-03-01T01:15:57.583Z,98807.17
2019-03-01T01:18:28.199Z,98802.16
2019-03-01T01:20:58.731Z,98792.44
2019-03-01T01:23:29.771Z,98779.16
2019-03-01T01:26:00.062Z,98778.95
2019-03-01T01:28:30.312Z,98781.00
2019-03-01T01:31:00.923Z,98781.50
2019-03-01T01:33:31.583Z,98768.57
2019-03-01T01:36:03.311Z,98768.69
2019-03-01T01:38:34.076Z,98761.38
2019-03-01T01:41:04.530Z,98764.55
2019-03-01T01:43:35.032Z,98761.99
2019-03-01T01:46:05.284Z,98751.78
2019-03-01T01:48:35.564Z,98748.86
2019-03-01T01:51:06.178Z,98747.03
2019-03-01T01:53:36.412Z,98748.75
2019-03-01T01:56:08.235Z,98749.70
2019-03-01T01:58:40.198Z,98749.62
2019-03-01T02:01:10.896Z,98742.20
2019-03-01T02:03:41.521Z,98743.53
2019-03-01T02:06:11.880Z,98739.40
2019-03-01T02:08:42.233Z,98738.32
2019-03-01T02:11:12.423Z,98736.25
2019-03-01T02:13:44.313Z,98734.45
2019-03-01T02:16:15.320Z,98737.13
2019-03-01T02:18:45.939Z,98738.25
2019-03-01T02:21:16.124Z,98743.13
2019-03-01T02:23:46.536Z,98730.63
2019-03-01T02:26:16.812Z,98721.53
2019-03-01T02:28:47.119Z,98721.31
2019-03-01T02:31:18.957Z,98719.12
2019-03-01T02:33:49.634Z,98714.78
2019-03-01T02:36:20.272Z,98714.05
2019-03-01T02:38:50.994Z,98718.55
2019-03-01T02:41:21.716Z,98716.48
2019-03-01T02:43:53.038Z,98709.48
2019-03-01T02:46:23.337Z,98705.13
2019-03-01T02:48:54.030Z,98711.42
2019-03-01T02:51:24.281Z,98702.66
2019-03-01T02:53:54.978Z,98700.58
2019-03-01T02:56:25.540Z,98701.81
2019-03-01T02:58:55.914Z,98700.23
2019-03-01T03:01:26.556Z,98699.73
2019-03-01T03:03:56.949Z,98699.73
2019-03-01T03:06:38.442Z,98701.91
2019-03-01T03:09:08.743Z,98700.92
2019-03-01T03:11:40.748Z,98695.76
2019-03-01T03:14:11.506Z,98690.13
2019-03-01T03:19:37.022Z,98684.33
2019-03-01T03:22:07.669Z,98683.05
2019-03-01T03:24:38.417Z,98672.81
2019-03-01T03:27:08.690Z,98676.10
2019-03-01T03:29:38.990Z,98668.69
2019-03-01T03:32:09.256Z,98672.04
2019-03-01T03:34:39.910Z,98667.78
2019-03-01T03:37:10.193Z,98662.81
2019-03-01T03:39:41.023Z,98660.27
2019-03-01T03:42:11.642Z,98658.89
2019-03-01T03:44:42.056Z,98657.94
2019-03-01T03:47:12.419Z,98665.44
2019-03-01T03:49:42.990Z,98660.69
2019-03-01T03:52:13.544Z,98660.05
2019-03-01T03:54:43.845Z,98654.14
2019-03-01T03:57:14.019Z,98649.05
2019-03-01T03:59:44.906Z,98642.94
2019-03-01T04:02:16.113Z,98645.12
2019-03-01T04:04:46.448Z,98641.77
2019-03-01T04:07:16.786Z,98637.00
2019-03-01T04:09:47.034Z,98632.87
2019-03-01T04:12:17.853Z,98630.84
2019-03-01T04:14:48.111Z,98630.97
2019-03-01T04:17:18.331Z,98628.28
2019-03-01T04:19:49.342Z,98620.55
2019-03-01T04:22:20.043Z,98613.55
2019-03-01T04:24:50.307Z,98608.13
2019-03-01T04:27:20.556Z,98598.19
2019-03-01T04:29:50.949Z,98601.56
2019-03-01T04:32:21.575Z,98596.95
2019-03-01T04:34:51.980Z,98591.86
2019-03-01T04:37:22.363Z,98593.31
2019-03-01T04:39:53.675Z,98594.29
2019-03-01T04:42:24.966Z,98588.72
2019-03-01T04:44:55.657Z,98592.16
2019-03-01T04:47:25.923Z,98588.30
2019-03-01T04:49:57.331Z,98589.90
2019-03-01T04:52:32.944Z,98583.13
2019-03-01T04:55:03.377Z,98586.40
2019-03-01T04:57:35.143Z,98575.87
2019-03-01T05:00:07.104Z,98576.97
2019-03-01T05:02:37.759Z,98573.45
2019-03-01T05:05:08.312Z,98573.20
2019-03-01T05:07:38.915Z,98574.55
2019-03-01T05:10:11.108Z,98578.20
2019-03-01T05:12:41.431Z,98579.39
2019-03-01T05:15:14.687Z,98578.74
2019-03-01T05:17:45.229Z,98581.04
2019-03-01T05:20:16.296Z,98579.80
2019-03-01T05:22:46.643Z,98569.46
2019-03-01T05:25:18.274Z,98571.03
2019-03-01T05:27:48.995Z,98568.30
2019-03-01T05:30:19.414Z,98558.61
2019-03-01T05:32:49.622Z,98562.19
2019-03-01T05:35:20.210Z,98545.34
2019-03-01T05:37:51.122Z,98543.84
2019-03-01T05:40:21.850Z,98541.66
2019-03-01T05:42:54.031Z,98540.55
2019-03-01T05:45:24.573Z,98534.48
2019-03-01T05:47:54.866Z,98542.48
2019-03-01T05:50:25.095Z,98536.05
2019-03-01T05:52:55.847Z,98533.38
2019-03-01T05:55:26.188Z,98528.41
2019-03-01T05:58:28.593Z,98530.58
2019-03-01T06:01:01.893Z,98528.64
2019-03-01T06:03:53.796Z,98533.48
2019-03-01T06:06:49.689Z,98527.66
2019-03-01T06:09:51.387Z,98536.50
2019-03-01T06:13:03.045Z,98522.84
2019-03-01T06:15:50.219Z,98535.81
2019-03-01T06:18:57.461Z,98538.98
2019-03-01T06:21:54.188Z,98538.98
2019-03-01T06:24:39.532Z,98545.50
2019-03-01T06:27:41.596Z,98597.14
2019-03-01T06:30:51.644Z,98602.00
2019-03-01T06:33:49.621Z,98609.17
2019-03-01T06:36:26.946Z,98603.66
2019-03-01T06:39:52.881Z,98615.11
2019-03-01T06:43:06.516Z,98627.32
2019-03-01T06:46:23.731Z,98629.62
2019-03-01T06:49:01.469Z,98607.62
2019-03-01T06:51:36.220Z,98608.22
2019-03-01T06:54:06.419Z,98601.39
2019-03-01T06:56:36.947Z,98604.23
2019-03-01T06:59:08.303Z,98586.69
2019-03-01T07:01:40.438Z,98574.52
2019-03-01T07:04:20.528Z,98575.00
2019-03-01T07:06:51.845Z,98575.93
2019-03-01T07:09:22.021Z,98572.88
2019-03-01T07:11:52.686Z,98564.69
2019-03-01T07:14:24.568Z,98561.24
2019-03-01T07:16:55.179Z,98565.77
2019-03-01T07:19:25.457Z,98575.22
2019-03-01T07:21:56.725Z,98574.61
2019-03-01T07:24:27.196Z,98586.41
2019-03-01T07:26:57.918Z,98587.22
2019-03-01T07:29:28.224Z,98593.69
2019-03-01T07:31:58.837Z,98595.16
2019-03-01T07:34:29.068Z,98606.34
2019-03-01T07:36:59.322Z,98603.14
2019-03-01T07:39:29.651Z,98608.42
2019-03-01T07:41:59.876Z,98612.51
2019-03-01T07:44:30.606Z,98607.19
2019-03-01T07:47:01.382Z,98598.94
2019-03-01T07:49:31.957Z,98605.05
2019-03-01T07:52:04.946Z,98596.22
2019-03-01T07:54:35.212Z,98591.87
2019-03-01T07:57:06.122Z,98609.39
2019-03-01T07:59:38.197Z,98601.94
2019-03-01T08:02:08.787Z,98614.36
2019-03-01T08:04:39.027Z,98609.65
2019-03-01T08:07:10.834Z,98609.83
2019-03-01T08:09:44.379Z,98614.09
2019-03-01T08:12:13.616Z,98615.91
2019-03-01T08:14:43.973Z,98613.78
2019-03-01T08:17:14.560Z,98618.27
2019-03-01T08:19:45.801Z,98623.58
2019-03-01T08:22:20.767Z,98616.05
2019-03-01T08:24:49.208Z,98628.37
2019-03-01T08:27:20.050Z,98623.63
2019-03-01T08:29:50.270Z,98624.60
2019-03-01T08:32:20.547Z,98624.74
2019-03-01T08:34:53.723Z,98620.30
2019-03-01T08:37:23.021Z,98619.86
2019-03-01T08:39:53.243Z,98618.58
2019-03-01T08:42:23.853Z,98622.75
2019-03-01T08:44:57.760Z,98622.53
2019-03-01T08:47:28.527Z,98615.43
2019-03-01T08:50:00.281Z,98634.02
2019-03-01T08:52:30.979Z,98623.98
2019-03-01T08:55:03.834Z,98614.66
2019-03-01T08:57:43.776Z,98619.17
2019-03-01T09:00:12.221Z,98613.66
2019-03-01T09:02:43.264Z,98617.30
2019-03-01T09:05:13.923Z,98612.39
2019-03-01T09:07:44.217Z,98606.77
2019-03-01T09:10:16.417Z,98606.48
2019-03-01T09:12:48.874Z,98614.73
2019-03-01T09:15:19.485Z,98605.83
2019-03-01T09:17:49.856Z,98605.02
2019-03-01T09:20:20.078Z,98595.03
2019-03-01T09:22:50.612Z,98596.72
2019-03-01T09:25:20.846Z,98591.39
2019-03-01T09:27:51.509Z,98603.38
2019-03-01T09:30:23.348Z,98603.19
2019-03-01T09:32:54.264Z,98600.72
2019-03-01T09:35:30.010Z,98603.36
2019-03-01T09:38:00.836Z,98592.59
2019-03-01T09:40:31.520Z,98602.28
2019-03-01T09:43:01.834Z,98598.26
2019-03-01T09:45:36.156Z,98606.77
2019-03-01T09:48:05.199Z,98609.08
2019-03-01T09:50:38.110Z,98603.17
2019-03-01T09:53:08.005Z,98594.42
2019-03-01T09:55:38.672Z,98598.72
2019-03-01T09:58:09.185Z,98598.72
2019-03-01T10:00:41.504Z,98603.17
2019-03-01T10:03:11.883Z,98593.74
2019-03-01T10:05:42.515Z,98600.30
2019-03-01T10:08:13.465Z,98598.84
2019-03-01T10:10:44.122Z,98591.34
2019-03-01T10:13:15.551Z,98596.20
2019-03-01T10:15:46.513Z,98597.92
2019-03-01T10:18:16.815Z,98594.42
2019-03-01T10:20:48.383Z,98598.77
2019-03-01T10:23:19.024Z,98601.70
2019-03-01T10:25:49.420Z,98605.53
2019-03-01T10:28:19.645Z,98606.61
2019-03-01T10:30:50.923Z,98616.84
2019-03-01T10:33:21.216Z,98613.59
2019-03-01T10:35:56.655Z,98615.46
2019-03-01T10:38:27.182Z,98618.72
2019-03-01T10:40:58.221Z,98620.80
2019-03-01T10:43:29.914Z,98619.00
2019-03-01T10:46:00.249Z,98618.00
2019-03-01T10:48:30.878Z,98616.80
2019-03-01T10:51:02.056Z,98617.66
2019-03-01T10:53:32.310Z,98617.74
2019-03-01T10:56:02.631Z,98613.55
2019-03-01T10:58:33.871Z,98613.44
2019-03-01T11:01:05.067Z,98618.56
2019-03-01T11:03:36.434Z,98616.59
2019-03-01T11:06:06.744Z,98614.41
2019-03-01T11:08:37.331Z,98613.92
2019-03-01T11:11:08.655Z,98607.39
2019-03-01T11:13:44.996Z,98614.77
2019-03-01T11:16:15.592Z,98612.61
2019-03-01T11:18:46.711Z,98611.28
2019-03-01T11:21:17.008Z,98606.95
2019-03-01T11:23:47.633Z,98609.13
2019-03-01T11:26:18.543Z,98615.20
2019-03-01T11:28:49.043Z,98613.28
2019-03-01T11:31:19.806Z,98613.78
2019-03-01T11:33:50.996Z,98613.56
2019-03-01T11:36:22.494Z,98614.45
2019-03-01T11:38:53.568Z,98605.13
2019-03-01T11:41:23.857Z,98610.48
2019-03-01T11:43:55.175Z,98603.08
2019-03-01T11:46:26.885Z,98612.39
2019-03-01T11:48:57.172Z,98608.89
2019-03-01T11:51:27.882Z,98606.62
2019-03-01T11:53:58.135Z,98598.71
2019-03-01T11:56:28.707Z,98593.97
2019-03-01T11:58:59.728Z,98600.74
2019-03-01T12:01:30.367Z,98600.64
2019-03-01T12:04:00.995Z,98592.53
2019-03-01T12:06:31.909Z,98586.59
2019-03-01T12:09:02.584Z,98589.75
2019-03-01T12:11:34.850Z,98594.11
2019-03-01T12:14:05.204Z,98596.64
2019-03-01T12:16:36.191Z,98602.36
2019-03-01T12:19:06.955Z,98591.05
2019-03-01T12:21:37.899Z,98601.28
2019-03-01T12:24:08.196Z,98592.91
2019-03-01T12:26:38.835Z,98591.56
2019-03-01T12:29:09.668Z,98604.08
2019-03-01T12:31:39.921Z,98600.54
2019-03-01T12:34:12.799Z,98611.72
2019-03-01T12:36:43.205Z,98589.14
2019-03-01T12:39:13.534Z,98589.03
2019-03-01T12:41:43.851Z,98588.39
2019-03-01T12:44:15.715Z,98586.43
2019-03-01T12:46:46.076Z,98589.39
2019-03-01T12:49:16.671Z,98587.45
2019-03-01T12:51:47.060Z,98595.61
2019-03-01T12:54:17.732Z,98585.64
2019-03-01T12:56:49.379Z,98595.27
2019-03-01T12:59:19.981Z,98590.80
2019-03-01T13:01:51.464Z,98597.67
2019-03-01T13:04:21.761Z,98598.37
2019-03-01T13:06:52.491Z,98591.81
2019-03-01T13:09:23.497Z,98586.34
2019-03-01T13:11:55.431Z,98593.65
2019-03-01T13:14:25.681Z,98588.66
2019-03-01T13:16:58.537Z,98593.02
2019-03-01T13:19:28.363Z,98588.03
2019-03-01T13:21:59.706Z,98589.86
2019-03-01T13:24:30.592Z,98597.73
2019-03-01T13:27:01.004Z,98599.80
2019-03-01T13:29:32.021Z,98600.05
2019-03-01T13:32:02.739Z,98602.22
2019-03-01T13:34:37.107Z,98611.55
2019-03-01T13:37:08.309Z,98613.00
2019-03-01T13:39:38.959Z,98607.45
2019-03-01T13:42:13.372Z,98618.48
2019-03-01T13:44:42.624Z,98611.81
2019-03-01T13:47:12.920Z,98608.45
2019-03-01T13:49:43.227Z,98608.45
2019-03-01T13:52:14.883Z,98613.05
2019-03-01T13:54:46.201Z,98620.73
2019-03-01T13:57:16.732Z,98615.63
2019-03-01T13:59:47.472Z,98612.45
2019-03-01T14:02:18.612Z,98613.78
2019-03-01T14:04:48.899Z,98618.41
2019-03-01T14:07:19.192Z,98624.36
2019-03-01T14:09:49.411Z,98637.33
2019-03-01T14:12:20.052Z,98628.72
2019-03-01T14:14:50.331Z,98633.31
2019-03-01T14:17:21.125Z,98632.93
2019-03-01T14:19:52.832Z,98635.25
2019-03-01T14:22:23.032Z,98630.51
2019-03-01T14:24:53.408Z,98633.56
2019-03-01T14:27:26.325Z,98637.47
2019-03-01T14:29:55.611Z,98637.71
2019-03-01T14:32:26.111Z,98644.95
2019-03-01T14:34:56.583Z,98642.86
2019-03-01T14:37:26.878Z,98646.01
2019-03-01T14:39:59.053Z,98643.41
2019-03-01T14:42:29.859Z,98653.78
2019-03-01T14:45:00.967Z,98658.52
2019-03-01T14:47:32.803Z,98650.25
2019-03-01T14:50:05.552Z,98659.49
2019-03-01T14:52:36.728Z,98651.63
2019-03-01T14:55:08.923Z,98653.36
2019-03-01T14:57:46.215Z,98655.34
2019-03-01T15:00:19.931Z,98661.03
2019-03-01T15:03:17.485Z,98663.36
2019-03-01T15:05:48.139Z,98667.22
2019-03-01T15:08:18.471Z,98670.48
2019-03-01T15:10:50.096Z,98671.36
2019-03-01T15:13:20.364Z,98674.73
2019-03-01T15:15:50.992Z,98677.41
2019-03-01T15:18:21.471Z,98674.03
2019-03-01T15:20:52.105Z,98669.55
2019-03-01T15:23:23.891Z,98664.81
2019-03-01T15:25:55.156Z,98666.79
2019-03-01T15:28:25.999Z,98664.38
2019-03-01T15:30:57.349Z,98661.61
2019-03-01T15:33:27.696Z,98663.69
2019-03-01T15:35:58.024Z,98670.96
2019-03-01T15:38:28.962Z,98671.94
2019-03-01T15:40:59.684Z,98668.03
2019-03-01T15:43:31.037Z,98673.95
2019-03-01T15:46:02.261Z,98674.89
2019-03-01T15:48:34.406Z,98680.32
2019-03-01T15:51:06.729Z,98680.45
2019-03-01T15:53:36.852Z,98680.80
2019-03-01T15:56:07.271Z,98683.70
2019-03-01T15:58:38.271Z,98692.16
2019-03-01T16:01:12.054Z,98696.64
2019-03-01T16:03:43.778Z,98694.83
2019-03-01T16:06:17.819Z,98699.33
2019-03-01T16:08:48.051Z,98696.47
2019-03-01T16:11:19.003Z,98693.13
2019-03-01T16:13:49.638Z,98702.17
2019-03-01T16:16:20.276Z,98697.85
2019-03-01T16:18:50.543Z,98696.78
2019-03-01T16:21:21.435Z,98708.41
2019-03-01T16:23:51.694Z,98706.33
2019-03-01T16:26:29.584Z,98703.51
2019-03-01T16:28:54.217Z,98709.48
2019-03-01T16:31:24.851Z,98705.97
2019-03-01T16:33:55.121Z,98709.98
2019-03-01T16:36:48.412Z,98706.92
2019-03-01T16:39:20.577Z,98712.50
2019-03-01T16:41:51.978Z,98720.71
2019-03-01T16:44:22.275Z,98727.52
2019-03-01T16:46:55.942Z,98726.03
2019-03-01T16:49:27.166Z,98725.42
2019-03-01T16:51:58.141Z,98733.52
2019-03-01T16:54:28.981Z,98729.95
2019-03-01T16:56:59.276Z,98726.91
2019-03-01T16:59:29.535Z,98731.72
2019-03-01T17:02:06.059Z,98736.81
2019-03-01T17:04:32.051Z,98740.81
2019-03-01T17:07:04.499Z,98741.89
2019-03-01T17:09:35.859Z,98751.33
2019-03-01T17:12:06.136Z,98755.17
2019-03-01T17:14:38.578Z,98753.48
2019-03-01T17:17:08.502Z,98754.59
2019-03-01T17:19:38.727Z,98753.13
2019-03-01T17:22:08.963Z,98757.48
2019-03-01T17:24:39.224Z,98760.38
2019-03-01T17:27:09.513Z,98761.46
2019-03-01T17:29:39.958Z,98761.46
2019-03-01T17:32:11.476Z,98762.77
2019-03-01T17:34:41.980Z,98773.44
2019-03-01T17:37:12.144Z,98769.44
2019-03-01T17:39:42.779Z,98775.52
2019-03-01T17:42:13.402Z,98780.11
2019-03-01T17:44:44.532Z,98778.38
2019-03-01T17:47:16.192Z,98788.34
2019-03-01T17:49:46.851Z,98797.28
2019-03-01T17:52:17.362Z,98785.67
2019-03-01T17:54:47.625Z,98800.66
2019-03-01T17:57:20.033Z,98799.20
2019-03-01T17:59:50.454Z,98797.61
2019-03-01T18:02:21.019Z,98804.77
2019-03-01T18:04:51.207Z,98801.16
2019-03-01T18:07:23.802Z,98808.41
2019-03-01T18:09:55.377Z,98813.97
2019-03-01T18:12:25.611Z,98816.28
2019-03-01T18:14:55.961Z,98813.52
2019-03-01T18:17:26.283Z,98829.75
2019-03-01T18:19:58.801Z,98828.02
2019-03-01T18:22:28.983Z,98829.00
2019-03-01T18:25:00.926Z,98838.50
2019-03-01T18:27:31.541Z,98846.16
2019-03-01T18:30:01.834Z,98853.86
2019-03-01T18:32:32.418Z,98853.45
2019-03-01T18:35:02.932Z,98857.64
2019-03-01T18:37:33.887Z,98856.79
2019-03-01T18:40:04.727Z,98865.19
2019-03-01T18:42:38.137Z,98868.30
2019-03-01T18:45:10.494Z,98870.61
2019-03-01T18:47:40.799Z,98875.41
2019-03-01T18:50:23.174Z,98878.08
2019-03-01T18:52:54.207Z,98880.53
2019-03-01T18:55:24.858Z,98877.11
2019-03-01T18:57:55.095Z,98880.92
2019-03-01T19:00:32.411Z,98882.83
2019-03-01T19:03:04.491Z,98889.50
2019-03-01T19:05:36.689Z,98885.98
2019-03-01T19:08:07.243Z,98885.59
2019-03-01T19:10:38.063Z,98886.08
2019-03-01T19:13:08.640Z,98888.84
2019-03-01T19:15:38.893Z,98887.23
2019-03-01T19:18:09.163Z,98896.97
2019-03-01T19:20:41.521Z,98889.45
2019-03-01T19:23:12.338Z,98897.86
2019-03-01T19:25:43.727Z,98899.05
2019-03-01T19:28:15.544Z,98898.03
2019-03-01T19:30:48.714Z,98888.91
2019-03-01T19:33:18.791Z,98893.09
2019-03-01T19:35:49.531Z,98895.04
2019-03-01T19:38:21.697Z,98894.86
2019-03-01T19:40:53.981Z,98899.92
2019-03-01T19:43:24.206Z,98906.89
2019-03-01T19:45:54.458Z,98910.62
2019-03-01T19:48:25.055Z,98908.66
2019-03-01T19:50:58.481Z,98914.34
2019-03-01T19:53:27.460Z,98912.65
2019-03-01T19:55:57.772Z,98915.41
2019-03-01T19:58:28.670Z,98918.92
2019-03-01T20:00:59.482Z,98930.52
2019-03-01T20:03:30.037Z,98926.16
2019-03-01T20:06:00.345Z,98927.67
2019-03-01T20:08:30.922Z,98925.55
2019-03-01T20:11:02.323Z,98921.06
2019-03-01T20:13:32.645Z,98925.94
2019-03-01T20:16:02.940Z,98926.87
2019-03-01T20:18:33.618Z,98924.73
2019-03-01T20:21:05.793Z,98933.00
2019-03-01T20:23:36.387Z,98934.51
2019-03-01T20:26:06.982Z,98937.39
2019-03-01T20:28:37.307Z,98940.42
2019-03-01T20:31:07.624Z,98941.56
2019-03-01T20:33:37.920Z,98940.90
2019-03-01T20:36:08.486Z,98946.50
2019-03-01T20:38:40.743Z,98948.63
2019-03-01T20:41:11.077Z,98943.66
2019-03-01T20:43:42.766Z,98941.38
2019-03-01T20:46:13.492Z,98938.23
2019-03-01T20:48:44.025Z,98946.71
2019-03-01T20:51:15.567Z,98949.16
2019-03-01T20:53:49.531Z,98952.80
2019-03-01T20:56:18.766Z,98948.41
2019-03-01T20:58:49.437Z,98957.16
2019-03-01T21:01:20.049Z,98957.16
2019-03-01T21:03:51.169Z,98962.58
2019-03-01T21:06:21.559Z,98963.55
2019-03-01T21:08:51.815Z,98966.70
2019-03-01T21:11:25.428Z,98966.58
2019-03-01T21:13:54.665Z,98982.42
2019-03-01T21:16:25.677Z,98969.94
2019-03-01T21:19:00.743Z,98963.82
2019-03-01T21:21:31.336Z,98964.79
2019-03-01T21:24:02.246Z,98960.03
2019-03-01T21:26:33.841Z,98962.91
2019-03-01T21:29:04.232Z,98974.63
2019-03-01T21:31:36.541Z,98970.72
2019-03-01T21:34:07.110Z,98976.62
2019-03-01T21:36:38.387Z,98966.53
2019-03-01T21:39:10.365Z,98967.50
2019-03-01T21:41:44.724Z,98973.03
2019-03-01T21:44:13.699Z,98968.64
2019-03-01T21:46:44.055Z,98970.46
2019-03-01T21:49:14.638Z,98968.00
2019-03-01T21:51:44.987Z,98968.85
2019-03-01T21:54:17.294Z,98967.16
2019-03-01T21:56:55.960Z,98972.70
2019-03-01T21:59:20.514Z,98973.63
2019-03-01T22:01:52.851Z,98977.47
2019-03-01T22:04:24.268Z,98986.59
2019-03-01T22:07:01.943Z,98983.08
2019-03-01T22:09:29.510Z,98991.45
2019-03-01T22:11:59.922Z,98984.72
2019-03-01T22:14:31.731Z,98988.75
2019-03-01T22:17:02.086Z,98983.15
2019-03-01T22:19:33.638Z,98991.59
2019-03-01T22:22:04.838Z,98990.85
2019-03-01T22:24:35.244Z,98987.91
2019-03-01T22:27:05.501Z,98992.19
2019-03-01T22:29:36.224Z,98987.83
2019-03-01T22:32:07.393Z,98993.52
2019-03-01T22:34:39.569Z,98991.62
2019-03-01T22:37:09.861Z,98991.62
2019-03-01T22:39:42.739Z,98988.97
2019-03-01T22:42:14.283Z,98998.08
2019-03-01T22:44:45.504Z,98994.86
2019-03-01T22:47:15.806Z,98993.52
2019-03-01T22:49:46.766Z,98996.81
2019-03-01T22:52:17.169Z,98993.01
2019-03-01T22:54:47.561Z,98997.55
2019-03-01T22:57:22.442Z,98993.09
2019-03-01T22:59:50.237Z,99000.69
2019-03-01T23:02:22.629Z,98997.73
2019-03-01T23:04:52.955Z,99001.66
2019-03-01T23:07:26.444Z,99005.08
2019-03-01T23:09:56.489Z,99005.29
2019-03-01T23:12:26.758Z,99010.98
2019-03-01T23:14:57.485Z,99010.41
2019-03-01T23:17:30.442Z,99008.80
2019-03-01T23:20:00.238Z,99013.41
2019-03-01T23:22:30.427Z,99008.39
2019-03-01T23:25:01.194Z,99007.27
2019-03-01T23:27:32.690Z,99005.50
2019-03-01T23:30:03.182Z,99012.05
2019-03-01T23:32:33.984Z,99011.38
2019-03-01T23:35:04.531Z,99016.13
2019-03-01T23:37:35.573Z,99019.17
2019-03-01T23:40:07.068Z,99022.80
2019-03-01T23:42:38.262Z,99018.80
2019-03-01T23:45:08.647Z,99017.84
2019-03-01T23:47:39.553Z,99016.91
2019-03-01T23:50:11.858Z,99014.45
2019-03-01T23:52:42.151Z,99012.72
2019-03-01T23:55:15.586Z,99013.69
2019-03-01T23:57:44.725Z,99021.00
